Time;durP1;ratioP1;P1;durP2;ratioP2;P2;SDS_P1;SDS_P2;PMS_P1;PMS_P2;Temp;Humidity;BMP_temperature;BMP_pressure;BME280_temperature;BME280_humidity;BME280_pressure;Samples;Min_cycle;Max_cycle;Signal;HPM_P1;HPM_P2
2022/05/21 00:00:56;;;;;;;447.13;425.75;;;17.30;99.90;;;16.88;100.00;100733.25;4858136;29;20255;-61
2022/05/21 00:03:26;;;;;;;434.35;412.88;;;17.20;99.90;;;16.91;100.00;100738.59;4853523;29;20217;-62
2022/05/21 00:05:54;;;;;;;457.67;435.25;;;17.10;99.90;;;16.93;100.00;100751.94;4887226;29;20209;-61
2022/05/21 00:08:22;;;;;;;445.52;423.25;;;17.10;99.90;;;16.99;100.00;100757.19;4878239;29;20216;-62
2022/05/21 00:10:50;;;;;;;423.73;402.30;;;;;;;16.76;100.00;100728.06;4871258;29;20228;-61
2022/05/21 00:13:18;;;;;;;421.92;401.23;;;16.90;99.90;;;16.66;100.00;100723.72;4873797;29;20220;-62
2022/05/21 00:15:47;;;;;;;543.55;515.80;;;16.90;99.90;;;16.46;100.00;100710.56;4870896;29;20228;-62
2022/05/21 00:18:15;;;;;;;515.53;490.20;;;16.70;99.90;;;16.45;100.00;100706.13;4866858;29;20213;-61
2022/05/21 00:20:49;;;;;;;313.73;297.23;;;16.70;99.90;;;16.49;100.00;100717.66;4872052;29;20228;-62
2022/05/21 00:23:24;;;;;;;313.73;297.80;;;16.70;99.90;;;16.34;100.00;100721.34;4881710;29;20208;-61
2022/05/21 00:26:01;;;;;;;354.08;336.98;;;16.40;99.90;;;16.08;100.00;100726.94;4867260;29;20215;-62
2022/05/21 00:28:30;;;;;;;380.23;362.33;;;16.40;99.90;;;16.22;100.00;100734.81;4871703;29;20224;-59
2022/05/21 00:30:59;;;;;;;386.23;367.13;;;16.30;99.90;;;16.03;100.00;100747.44;4853200;29;20224;-62
2022/05/21 00:33:28;;;;;;;430.85;410.08;;;16.30;99.90;;;16.19;100.00;100756.19;4891837;29;20221;-62
2022/05/21 00:35:56;;;;;;;434.13;413.17;;;16.30;99.90;;;16.24;100.00;100754.38;4870731;29;20237;-62
2022/05/21 00:38:25;;;;;;;457.42;435.00;;;16.40;99.90;;;16.13;100.00;100750.91;4883228;29;20212;-62
2022/05/21 00:40:54;;;;;;;462.60;441.38;;;16.20;99.90;;;16.07;100.00;100727.84;4855306;29;20721;-62
2022/05/21 00:43:45;;;;;;;433.05;413.15;;;16.10;99.90;;;15.93;100.00;100727.97;4897036;29;20221;-60
2022/05/21 00:46:29;;;;;;;448.65;427.30;;;16.00;99.90;;;15.91;100.00;100711.09;4879491;29;20205;-61
2022/05/21 00:49:08;;;;;;;466.58;443.88;;;15.90;99.90;;;15.95;100.00;100714.59;4845647;29;20213;-62
2022/05/21 00:51:49;;;;;;;449.20;428.13;;;15.90;99.90;;;16.00;100.00;100726.13;4866612;29;20229;-62
2022/05/21 00:54:21;;;;;;;445.65;423.60;;;15.80;99.90;;;15.90;100.00;100730.66;4882223;29;20215;-62
2022/05/21 00:56:58;;;;;;;437.58;416.73;;;15.80;99.90;;;15.90;100.00;100743.97;4872824;29;20213;-61
2022/05/21 01:02:24;;;;;;;429.33;408.42;;;15.80;99.90;;;15.85;100.00;100755.59;4890759;29;20215;-62
2022/05/21 01:04:56;;;;;;;366.83;348.15;;;15.70;99.90;;;15.70;100.00;100745.03;4872674;29;20252;-62
2022/05/21 01:07:25;;;;;;;364.75;347.77;;;15.70;99.90;;;15.72;100.00;100753.91;4880670;29;20223;-61
2022/05/21 01:09:56;;;;;;;383.27;365.17;;;15.60;99.90;;;15.70;100.00;100755.69;4874293;29;20232;-61
2022/05/21 01:12:28;;;;;;;421.90;401.75;;;15.60;99.90;;;15.57;100.00;100758.41;4870553;29;20239;-61
2022/05/21 01:15:03;;;;;;;447.35;426.92;;;15.60;99.90;;;15.62;100.00;100767.28;4871891;29;20235;-61
2022/05/21 01:17:32;;;;;;;396.00;377.35;;;15.50;99.90;;;15.58;100.00;100784.16;4869290;29;20208;-60
2022/05/21 01:20:13;;;;;;;435.67;415.85;;;15.60;99.90;;;15.53;100.00;100796.59;4879306;29;20245;-61
2022/05/21 01:22:47;;;;;;;448.35;426.75;;;15.60;99.90;;;15.54;100.00;100790.38;4896621;29;20213;-61
2022/05/21 01:25:23;;;;;;;412.17;393.83;;;15.50;99.90;;;15.47;100.00;100779.75;4844832;29;20597;-61
2022/05/21 01:27:56;;;;;;;464.30;441.80;;;15.50;99.90;;;15.33;100.00;100785.16;4882381;29;20232;-61
2022/05/21 01:30:32;;;;;;;502.85;478.92;;;15.40;99.90;;;15.33;100.00;100802.03;4906728;29;20224;-61
2022/05/21 01:33:10;;;;;;;486.35;464.27;;;15.40;99.90;;;15.22;100.00;100802.97;4882700;29;20238;-62
2022/05/21 01:35:41;;;;;;;460.25;439.67;;;15.40;99.90;;;15.12;100.00;100815.44;4852743;29;20216;-61
2022/05/21 01:38:10;;;;;;;434.67;413.95;;;15.20;99.90;;;14.93;100.00;100816.41;4880059;29;20208;-61
2022/05/21 01:40:38;;;;;;;437.45;417.05;;;15.20;99.90;;;14.83;100.00;100838.59;4868974;29;20244;-61
2022/05/21 01:45:54;;;;;;;394.48;376.75;;;15.10;99.90;;;14.88;100.00;100864.34;4880328;29;20223;-61
2022/05/21 01:48:25;;;;;;;418.95;399.98;;;15.10;99.90;;;14.80;100.00;100876.78;4895298;29;20220;-61
2022/05/21 01:50:55;;;;;;;449.23;428.25;;;15.00;99.90;;;14.68;100.00;100880.34;4860924;29;20248;-62
2022/05/21 01:53:25;;;;;;;441.00;419.88;;;14.80;99.90;;;14.57;100.00;100892.75;4906127;29;20247;-60
2022/05/21 01:55:56;;;;;;;419.17;400.35;;;14.70;99.90;;;14.46;100.00;100909.63;4875353;29;20232;-62
2022/05/21 01:58:25;;;;;;;484.90;458.85;;;14.60;99.90;;;14.37;100.00;100931.75;4864850;29;20209;-61
2022/05/21 02:00:54;;;;;;;482.95;459.02;;;14.60;99.90;;;14.29;100.00;100958.31;4890337;29;20239;-61
2022/05/21 02:03:23;;;;;;;419.95;400.40;;;14.50;99.90;;;14.27;100.00;100972.50;4868347;29;20216;-61
2022/05/21 02:05:51;;;;;;;419.35;399.85;;;14.40;99.90;;;14.26;100.00;100984.91;4877018;29;20209;-61
2022/05/21 02:08:20;;;;;;;449.20;428.33;;;14.40;99.90;;;14.16;100.00;101006.16;4839736;29;20208;-61
2022/05/21 02:10:48;;;;;;;449.00;427.73;;;14.30;99.90;;;13.94;100.00;100998.09;4875492;29;20709;-61
2022/05/21 02:13:23;;;;;;;437.20;416.90;;;14.20;99.90;;;14.05;100.00;101028.28;4883053;29;20243;-59
2022/05/21 02:15:52;;;;;;;382.10;363.88;;;14.20;99.90;;;14.02;100.00;101030.03;4855916;29;20235;-61
2022/05/21 02:18:21;;;;;;;332.77;317.80;;;14.10;99.90;;;14.00;100.00;101029.13;4901228;29;20253;-61
2022/05/21 02:20:50;;;;;;;284.45;271.40;;;14.10;99.90;;;13.98;100.00;101028.25;4854640;29;20228;-61
2022/05/21 02:23:19;;;;;;;201.90;192.88;;;14.10;99.90;;;14.16;100.00;101030.09;4891431;29;20217;-61
2022/05/21 02:25:47;;;;;;;166.43;157.45;;;14.00;99.90;;;14.03;100.00;101021.19;4872839;29;20216;-61
2022/05/21 02:28:16;;;;;;;157.27;148.48;;;14.00;99.90;;;14.05;100.00;101033.59;4851197;29;20208;-61
2022/05/21 02:30:44;;;;;;;159.30;150.55;;;14.00;99.90;;;13.86;100.00;101031.72;4851837;29;20247;-61
2022/05/21 02:33:12;;;;;;;158.55;150.70;;;14.00;99.90;;;13.79;100.00;101037.91;4871870;29;20233;-58
2022/05/21 02:35:41;;;;;;;222.30;212.32;;;13.90;99.90;;;13.82;100.00;101060.97;4896343;29;20677;-59
2022/05/21 02:40:56;;;;;;;143.88;135.90;;;13.80;99.90;;;13.63;100.00;101090.09;4888070;29;20228;-60
2022/05/21 02:43:24;;;;;;;149.35;141.20;;;13.70;99.90;;;13.69;100.00;101099.88;4878727;29;20236;-61
2022/05/21 02:45:52;;;;;;;139.65;132.90;;;13.60;99.90;;;13.54;100.00;101110.38;4835329;29;20208;-59
2022/05/21 02:48:20;;;;;;;150.90;142.50;;;13.60;99.90;;;13.55;100.00;101107.75;4892823;29;20217;-61
2022/05/21 02:50:48;;;;;;;147.23;139.45;;;13.60;99.90;;;13.52;100.00;101112.13;4898019;29;20241;-62
2022/05/21 02:53:18;;;;;;;181.32;172.43;;;13.60;99.90;;;13.48;100.00;101119.19;4875643;29;20259;-61
2022/05/21 02:55:47;;;;;;;179.65;170.05;;;13.60;99.90;;;13.37;100.00;101121.78;4859131;29;20212;-61
2022/05/21 02:58:16;;;;;;;153.30;145.27;;;13.50;99.90;;;13.31;100.00;101120.81;4902768;29;20217;-61
2022/05/21 03:00:45;;;;;;;138.32;131.10;;;13.40;99.90;;;13.38;100.00;101135.94;4884338;29;20220;-60
2022/05/21 03:03:14;;;;;;;146.25;138.02;;;13.40;99.90;;;13.23;100.00;101131.38;4888721;29;20216;-60
2022/05/21 03:05:43;;;;;;;157.57;148.65;;;13.40;99.90;;;13.10;100.00;101134.75;4873852;29;20204;-62
2022/05/21 03:10:57;;;;;;;159.27;151.07;;;13.20;99.90;;;13.10;100.00;101156.00;4887321;29;20232;-61
2022/05/21 03:13:27;;;;;;;150.35;142.43;;;13.20;99.90;;;13.04;100.00;101158.59;4862488;29;20227;-60
2022/05/21 03:15:56;;;;;;;144.88;137.13;;;13.20;99.90;;;13.12;100.00;101167.53;4871579;29;20209;-61
2022/05/21 03:18:24;;;;;;;153.15;144.30;;;13.20;99.90;;;13.19;100.00;101150.81;4884137;29;20205;-59
2022/05/21 03:20:52;;;;;;;184.88;174.75;;;13.20;99.90;;;13.23;100.00;101128.72;4890369;29;20236;-61
2022/05/21 03:23:20;;;;;;;172.20;162.48;;;13.20;99.90;;;13.13;100.00;101138.34;4876762;29;20576;-61
2022/05/21 03:25:48;;;;;;;162.77;153.90;;;13.20;99.90;;;13.03;100.00;101136.47;4856469;29;20221;-60
2022/05/21 03:28:19;;;;;;;167.07;158.43;;;13.20;99.90;;;13.11;100.00;101125.91;4862447;29;20224;-59
2022/05/21 03:30:47;;;;;;;164.23;155.48;;;13.10;99.90;;;13.12;100.00;101133.00;4857475;29;20232;-61
2022/05/21 03:33:15;;;;;;;176.32;167.40;;;13.10;99.90;;;13.03;100.00;101130.25;4875100;29;20236;-59
2022/05/21 03:35:44;;;;;;;190.63;181.52;;;13.10;99.90;;;13.00;100.00;101141.75;4878109;29;20212;-61
2022/05/21 03:38:14;;;;;;;188.27;178.30;;;13.10;99.90;;;13.02;100.00;101149.72;4874167;29;20212;-61
2022/05/21 03:40:42;;;;;;;151.05;143.90;;;13.10;99.90;;;12.89;100.00;101155.75;4884645;29;20236;-60
2022/05/21 03:43:10;;;;;;;164.43;156.93;;;13.00;99.90;;;12.87;100.00;101171.66;4875172;29;20243;-61
2022/05/21 03:45:39;;;;;;;190.63;180.15;;;13.00;99.90;;;12.79;100.00;101186.59;4859903;29;20220;-60
2022/05/21 03:48:07;;;;;;;156.05;149.15;;;12.90;99.90;;;12.79;100.00;101205.19;4851350;29;20213;-61
2022/05/21 03:50:36;;;;;;;164.65;157.48;;;12.90;99.90;;;12.81;100.00;101214.94;4896574;29;20263;-60
2022/05/21 03:53:04;;;;;;;182.00;172.88;;;12.90;99.90;;;12.74;100.00;101221.06;4887490;29;20233;-60
2022/05/21 03:55:32;;;;;;;205.95;195.95;;;12.80;99.90;;;12.76;100.00;101231.69;4873936;29;20244;-61
2022/05/21 03:58:00;;;;;;;197.63;187.10;;;12.80;99.90;;;12.82;100.00;101243.28;4891065;29;20217;-61
2022/05/21 04:00:28;;;;;;;207.90;198.35;;;12.80;99.90;;;12.80;100.00;101242.38;4873534;29;20279;-61
2022/05/21 04:02:58;;;;;;;230.32;219.50;;;12.80;99.90;;;12.83;100.00;101244.16;4874344;29;20209;-61
2022/05/21 04:05:27;;;;;;;180.25;171.23;;;12.70;99.90;;;12.80;100.00;101247.66;4858298;29;20216;-61
2022/05/21 04:07:56;;;;;;;196.15;186.40;;;12.70;99.90;;;12.86;100.00;101253.94;4880619;29;20212;-60
2022/05/21 04:10:24;;;;;;;191.00;180.60;;;12.70;99.90;;;12.76;100.00;101260.88;4887940;29;20228;-61
2022/05/21 04:12:52;;;;;;;185.90;177.13;;;12.70;99.90;;;12.87;100.00;101267.22;4903384;29;20715;-60
2022/05/21 04:15:20;;;;;;;190.68;181.48;;;12.70;99.90;;;12.86;100.00;101265.44;4896967;29;20216;-60
2022/05/21 04:17:50;;;;;;;215.20;204.77;;;12.70;99.90;;;12.80;100.00;101276.88;4884376;29;20232;-61
2022/05/21 04:20:20;;;;;;;257.73;244.88;;;12.70;99.90;;;12.78;100.00;101272.41;4887528;29;20244;-61
2022/05/21 04:22:47;;;;;;;238.93;227.50;;;12.70;99.90;;;12.84;100.00;101264.53;4883544;29;20574;-61
2022/05/21 04:25:16;;;;;;;262.98;250.38;;;12.70;99.90;;;12.82;100.00;101267.16;4873358;29;20223;-60
2022/05/21 04:27:44;;;;;;;249.68;238.85;;;12.70;99.90;;;12.87;100.00;101269.00;4890897;29;20216;-61
2022/05/21 04:30:26;;;;;;;284.35;271.45;;;12.70;99.90;;;12.90;100.00;101279.66;4912566;29;20236;-60
2022/05/21 04:32:57;;;;;;;286.17;272.95;;;12.70;99.90;;;12.97;100.00;101263.81;4875086;29;20220;-59
2022/05/21 04:36:17;;;;;;;248.75;237.32;;;12.70;99.90;;;12.99;100.00;101262.06;4869845;29;20299;-61
2022/05/21 04:38:16;;;;;;;262.95;250.07;;;12.80;99.90;;;12.95;100.00;101248.75;4863731;29;20216;-60
2022/05/21 04:40:44;;;;;;;255.88;243.55;;;12.80;99.90;;;13.03;100.00;101255.06;4861386;29;20247;-60
2022/05/21 04:43:12;;;;;;;260.83;246.73;;;12.80;99.90;;;13.03;100.00;101255.06;4885694;29;20224;-61
2022/05/21 04:45:40;;;;;;;232.35;220.68;;;12.80;99.90;;;13.06;100.00;101239.16;4871286;29;20221;-60
2022/05/21 04:48:10;;;;;;;227.00;217.15;;;12.80;99.90;;;13.09;100.00;101240.09;4873109;29;20213;-60
2022/05/21 04:50:39;;;;;;;223.02;212.60;;;12.80;99.90;;;13.14;100.00;101243.69;4883411;29;20597;-59
2022/05/21 04:53:07;;;;;;;220.85;210.73;;;12.90;99.90;;;13.19;100.00;101243.78;4903624;29;20224;-60
2022/05/21 04:55:35;;;;;;;234.98;222.48;;;12.90;99.90;;;13.30;100.00;101250.09;4869847;29;20211;-61
2022/05/21 04:58:04;;;;;;;224.93;213.55;;;13.00;99.90;;;13.27;100.00;101257.16;4871873;29;20220;-60
2022/05/21 05:00:32;;;;;;;222.48;211.73;;;13.00;99.90;;;13.31;100.00;101267.81;4861204;29;20236;-61
2022/05/21 05:03:01;;;;;;;237.63;226.65;;;12.60;99.90;;;13.44;100.00;101263.53;4846187;29;20211;-61
2022/05/21 05:05:28;;;;;;;246.07;234.07;;;13.10;99.90;;;13.55;100.00;101267.19;4887865;29;20210;-60
2022/05/21 05:07:56;;;;;;;224.35;213.30;;;13.10;99.90;;;13.62;100.00;101263.72;4885913;29;20208;-60
2022/05/21 05:10:27;;;;;;;236.15;224.10;;;13.20;99.90;;;13.64;100.00;101254.00;4885971;29;20230;-60
2022/05/21 05:12:55;;;;;;;228.82;218.77;;;13.20;99.90;;;13.68;100.00;101274.41;4882107;29;20665;-58
2022/05/21 05:15:23;;;;;;;239.57;227.15;;;13.30;99.90;;;13.80;100.00;101278.94;4888199;29;20216;-57
2022/05/21 05:18:07;;;;;;;230.57;219.25;;;13.40;99.90;;;13.84;100.00;101267.47;4871041;29;20204;-58
2022/05/21 05:20:37;;;;;;;227.07;216.05;;;13.40;99.90;;;13.95;100.00;101262.25;4877383;29;20248;-60
2022/05/21 05:23:06;;;;;;;236.50;225.40;;;13.50;99.90;;;13.99;100.00;101261.38;4865111;29;20209;-60
2022/05/21 05:25:34;;;;;;;228.77;217.57;;;13.60;99.90;;;14.04;100.00;101257.88;4877739;29;20222;-60
2022/05/21 05:28:02;;;;;;;230.32;219.57;;;13.60;99.90;;;14.21;100.00;101271.31;4867911;29;20211;-57
2022/05/21 05:30:31;;;;;;;223.13;212.77;;;13.70;99.90;;;14.28;100.00;101277.56;4889869;29;20239;-59
2022/05/21 05:32:59;;;;;;;230.32;219.52;;;13.80;99.90;;;14.29;100.00;101268.72;4842182;29;20208;-60
2022/05/21 05:35:27;;;;;;;240.88;229.63;;;13.90;99.90;;;14.37;100.00;101275.91;4896727;29;20233;-60
2022/05/21 05:37:55;;;;;;;241.32;231.88;;;13.90;99.90;;;14.48;100.00;101257.38;4866716;29;20221;-59
2022/05/21 05:40:24;;;;;;;248.85;235.90;;;14.00;99.90;;;14.62;100.00;101236.16;4874836;29;20236;-61
2022/05/21 05:42:52;;;;;;;233.05;223.27;;;14.10;99.90;;;14.77;100.00;101244.22;4866495;29;20294;-61
2022/05/21 05:45:20;;;;;;;231.30;220.82;;;14.20;99.90;;;14.88;100.00;101228.28;4892793;29;20213;-58
2022/05/21 05:47:48;;;;;;;242.60;231.38;;;14.30;99.90;;;15.07;100.00;101227.47;4868361;29;20699;-61
2022/05/21 05:50:16;;;;;;;248.88;237.00;;;14.40;99.90;;;15.18;100.00;101215.06;4903419;29;20236;-61
2022/05/21 05:52:44;;;;;;;246.88;235.45;;;14.60;99.90;;;15.29;100.00;101205.31;4873463;29;20217;-58
2022/05/21 05:55:12;;;;;;;239.07;228.48;;;14.70;99.90;;;15.28;97.96;101176.91;4888926;29;20243;-57
2022/05/21 05:57:41;;;;;;;246.60;235.68;;;14.80;99.90;;;15.36;97.03;101150.25;4872815;29;20213;-61
2022/05/21 06:00:10;;;;;;;240.30;230.25;;;14.90;99.90;;;15.47;97.23;101161.81;4890857;29;20225;-60
2022/05/21 06:03:01;;;;;;;247.55;237.07;;;15.00;99.90;;;15.52;97.29;101164.47;4879586;29;20209;-60
2022/05/21 06:05:32;;;;;;;245.27;234.07;;;15.00;99.90;;;15.44;93.66;101111.16;4882462;29;20216;-60
2022/05/21 06:08:03;;;;;;;262.42;250.13;;;15.10;99.90;;;15.50;94.71;101110.28;4859563;29;20220;-61
2022/05/21 06:10:39;;;;;;;261.20;249.25;;;15.20;99.90;;;15.57;96.48;101158.31;4857975;29;20252;-61
2022/05/21 06:13:08;;;;;;;275.15;260.90;;;15.20;99.90;;;15.67;95.72;101148.56;4883040;29;20208;-61
2022/05/21 06:15:37;;;;;;;284.15;269.98;;;15.30;99.90;;;15.82;95.41;101142.31;4871259;29;20244;-58
2022/05/21 06:18:14;;;;;;;278.75;265.73;;;15.30;99.90;;;15.94;93.12;101132.53;4850639;29;20227;-61
2022/05/21 06:20:43;;;;;;;297.70;283.80;;;15.40;99.90;;;16.13;92.88;101135.16;4871453;29;20722;-60
2022/05/21 06:23:12;;;;;;;316.80;302.58;;;15.60;99.90;;;16.17;91.54;101124.47;4883086;29;20213;-60
2022/05/21 06:25:41;;;;;;;317.85;304.10;;;15.70;99.90;;;16.20;91.72;101115.56;4890445;29;20213;-59
2022/05/21 06:28:09;;;;;;;325.58;310.65;;;15.80;99.90;;;16.13;91.21;101095.13;4885736;29;20229;-60
2022/05/21 06:30:40;;;;;;;276.42;264.27;;;15.90;99.90;;;16.24;91.30;101111.97;4872955;29;20229;-60
2022/05/21 06:33:34;;;;;;;288.25;275.73;;;15.90;99.90;;;16.22;91.60;101109.31;4870297;29;20228;-61
2022/05/21 06:36:11;;;;;;;280.83;269.55;;;16.00;99.90;;;16.07;90.16;101063.13;4861369;29;20208;-61
2022/05/21 06:38:40;;;;;;;297.85;282.08;;;16.00;99.90;;;16.27;91.62;101093.28;4900311;29;20625;-62
2022/05/21 06:41:09;;;;;;;291.27;277.73;;;16.00;99.90;;;16.52;90.00;101100.28;4882532;29;20236;-60
2022/05/21 06:43:37;;;;;;;284.38;270.70;;;16.10;99.90;;;16.42;89.30;101069.19;4881663;29;20225;-60
2022/05/21 06:46:05;;;;;;;312.45;298.48;;;16.20;99.90;;;16.65;89.78;101101.16;4855428;29;20220;-61
2022/05/21 06:48:34;;;;;;;262.00;249.45;;;16.30;99.90;;;16.72;88.00;101068.19;4857198;29;20200;-62
2022/05/21 06:51:05;;;;;;;264.40;252.02;;;16.40;99.90;;;16.80;88.20;101061.00;4873521;29;20237;-62
2022/05/21 06:53:36;;;;;;;291.45;278.25;;;16.50;99.90;;;16.85;89.04;101075.22;4889724;29;20216;-61
2022/05/21 06:56:14;;;;;;;341.20;325.00;;;16.60;99.90;;;16.95;89.35;101082.31;4885294;29;20228;-60
2022/05/21 06:58:43;;;;;;;307.92;293.27;;;16.70;99.90;;;17.17;88.77;101082.16;4888759;29;20208;-62
2022/05/21 07:01:12;;;;;;;316.45;301.65;;;16.90;99.90;;;16.87;87.54;101013.75;4859077;29;20721;-61
2022/05/21 07:03:40;;;;;;;322.77;307.50;;;16.90;99.90;;;17.12;87.04;101031.41;4881395;29;20221;-61
2022/05/21 07:08:55;;;;;;;285.02;270.77;;;13.50;99.90;;;17.11;85.82;100988.66;4872668;29;20216;-61
2022/05/21 07:11:23;;;;;;;298.48;282.95;;;17.20;99.90;;;17.00;85.23;100963.81;4883726;29;20681;-62
2022/05/21 07:13:51;;;;;;;340.75;323.40;;;17.20;99.90;;;17.50;87.31;101033.72;4877843;29;20243;-61
2022/05/21 07:16:19;;;;;;;340.88;325.25;;;17.30;99.90;;;17.74;87.00;101042.44;4888514;29;20227;-62
2022/05/21 07:18:46;;;;;;;348.45;331.58;;;17.40;99.90;;;17.83;85.77;101016.47;4907793;29;20212;-62
2022/05/21 07:21:16;;;;;;;319.38;304.13;;;17.70;99.90;;;17.63;88.18;101013.09;4890087;29;20234;-61
2022/05/21 07:23:45;;;;;;;353.52;336.80;;;17.70;99.90;;;17.71;84.69;100984.50;4911776;29;20207;-62
2022/05/21 07:26:19;;;;;;;304.35;289.25;;;17.80;99.90;;;17.82;84.65;100995.97;4891058;29;20228;-62
2022/05/21 07:28:53;;;;;;;321.83;305.10;;;17.90;99.90;;;17.71;84.08;100949.72;4886892;29;20791;-62
2022/05/21 07:31:21;;;;;;;333.00;317.42;;;17.90;99.90;;;17.92;83.84;100972.66;4897836;29;20208;-62
2022/05/21 07:33:50;;;;;;;352.08;334.50;;;18.00;99.90;;;17.74;83.91;100947.03;4892597;29;20235;-62
2022/05/21 07:36:18;;;;;;;349.40;333.17;;;17.90;99.90;;;18.38;85.78;101039.91;4890115;29;20228;-62
2022/05/21 07:38:46;;;;;;;353.63;337.38;;;18.10;99.90;;;18.54;84.33;101024.50;4904758;29;20208;-60
2022/05/21 07:41:14;;;;;;;321.55;305.98;;;18.30;99.90;;;18.00;82.65;100914.56;4905127;29;20216;-62
2022/05/21 07:43:42;;;;;;;326.13;310.05;;;18.40;99.90;;;18.51;83.28;100976.34;4873914;29;20220;-63
2022/05/21 07:46:10;;;;;;;303.40;285.27;;;18.50;99.90;;;18.57;82.96;100973.56;4860785;29;20226;-62
2022/05/21 07:48:38;;;;;;;277.38;262.17;;;18.80;99.90;;;18.88;84.55;101029.41;4920208;28;20219;-62
2022/05/21 07:51:08;;;;;;;269.40;255.95;;;18.90;99.90;;;18.56;84.39;100966.44;4889340;29;20247;-63
2022/05/21 07:53:39;;;;;;;283.60;269.20;;;18.90;99.90;;;18.44;83.58;100938.06;4891275;29;20258;-62
2022/05/21 07:56:10;;;;;;;273.70;261.08;;;18.90;99.90;;;18.52;83.84;100949.53;4896490;29;20235;-62
2022/05/21 07:58:47;;;;;;;276.90;263.40;;;18.90;99.90;;;18.24;83.20;100897.31;4904022;29;20238;-63
2022/05/21 08:01:16;;;;;;;272.80;259.83;;;18.90;99.90;;;18.39;84.03;100926.53;4875796;29;20661;-63
2022/05/21 08:03:46;;;;;;;268.63;255.68;;;18.80;99.90;;;18.75;83.96;100965.28;4862497;29;20335;-63
2022/05/21 08:06:16;;;;;;;267.40;253.18;;;19.00;99.90;;;18.60;84.46;100957.44;4880918;29;20695;-62
2022/05/21 08:08:45;;;;;;;267.77;253.38;;;19.10;99.90;;;18.67;84.53;100958.28;4873969;29;20215;-62
2022/05/21 08:11:15;;;;;;;262.85;249.68;;;19.00;99.90;;;18.49;82.83;100900.50;4886754;29;20239;-62
2022/05/21 08:13:43;;;;;;;245.10;231.90;;;19.10;99.90;;;18.29;82.37;100844.56;4889861;29;20226;-63
2022/05/21 08:16:12;;;;;;;259.92;246.02;;;18.90;99.90;;;18.99;84.10;100965.78;4892820;29;20219;-62
2022/05/21 08:18:40;;;;;;;244.15;232.07;;;19.00;99.90;;;18.89;82.86;100932.88;4919851;29;20212;-63
2022/05/21 08:21:08;;;;;;;248.07;235.38;;;19.10;99.90;;;19.08;83.30;100938.81;4928966;28;20232;-62
2022/05/21 08:29:10;;;;;;;251.55;238.23;;;19.60;99.90;;;19.06;83.36;100903.09;4888789;29;20234;-63
2022/05/21 08:31:38;;;;;;;254.98;241.55;;;19.70;99.90;;;19.21;84.03;100924.28;4888972;29;20669;-63
2022/05/21 08:34:07;;;;;;;259.25;245.80;;;19.70;99.90;;;19.60;83.66;100946.81;4877434;29;20216;-62
2022/05/21 08:36:36;;;;;;;263.17;248.80;;;19.90;99.90;;;19.52;81.18;100887.06;4891244;29;20243;-63
2022/05/21 08:39:05;;;;;;;252.57;238.95;;;20.00;99.90;;;19.42;81.68;100877.38;4883641;29;20219;-63
2022/05/21 08:41:34;;;;;;;257.98;244.40;;;20.10;99.90;;;19.46;82.11;100874.59;4896132;29;20222;-63
2022/05/21 08:44:07;;;;;;;264.52;250.88;;;20.10;99.90;;;19.73;81.59;100888.44;4901270;29;20227;-63
2022/05/21 08:46:59;;;;;;;264.73;251.02;;;20.10;99.90;;;19.55;80.48;100836.03;4895083;29;20211;-63
2022/05/21 08:50:03;;;;;;;266.38;251.07;;;20.40;99.90;;;19.29;81.33;100809.69;4897922;29;20235;-63
2022/05/21 08:53:02;;;;;;;277.52;263.20;;;20.10;99.90;;;20.22;79.59;100881.94;4882900;29;20202;-64
2022/05/21 08:55:43;;;;;;;289.35;274.88;;;20.50;99.90;;;20.34;76.61;100812.72;4904488;29;20235;-63
2022/05/21 08:58:44;;;;;;;285.17;270.13;;;20.80;99.90;;;20.15;77.10;100779.19;4876373;29;20204;-63
2022/05/21 09:01:17;;;;;;;286.05;270.45;;;21.00;99.90;;;19.91;77.25;100740.38;4884396;29;20229;-62
2022/05/21 09:03:45;;;;;;;301.70;285.10;;;20.70;99.90;;;20.65;77.30;100830.75;4895917;29;20208;-63
2022/05/21 09:06:22;;;;;;;308.10;291.83;;;20.90;99.90;;;21.04;75.69;100807.31;4887816;29;20215;-63
2022/05/21 09:09:11;;;;;;;303.77;287.23;;;21.40;99.90;;;20.43;76.38;100725.66;4886752;29;20218;-63
2022/05/21 09:12:02;;;;;;;316.90;298.65;;;21.40;99.90;;;21.24;77.11;100815.75;4891524;29;20231;-63
2022/05/21 09:14:42;;;;;;;312.80;295.85;;;21.80;99.90;;;20.84;74.41;100711.09;4914672;29;20212;-63
2022/05/21 09:17:17;;;;;;;311.60;294.85;;;21.30;99.90;;;19.60;71.14;100480.00;4911894;29;20235;-63
2022/05/21 09:19:53;;;;;;;717.83;676.83;;;20.70;99.90;;;19.54;70.58;100481.97;4891288;29;20227;-63
2022/05/21 09:22:22;;;;;;;409.42;387.05;;;20.40;99.90;;;19.96;70.02;100526.41;4905170;29;20223;-64
2022/05/21 09:25:26;;;;;;;474.10;448.98;;;21.00;99.90;;;20.99;70.27;100629.13;4871263;29;20577;-63
2022/05/21 09:28:07;;;;;;;465.38;441.10;;;21.40;99.90;;;21.12;70.84;100635.88;4863926;29;20219;-63
2022/05/21 09:30:41;;;;;;;432.25;409.10;;;21.90;99.90;;;21.29;70.84;100616.56;4893243;29;20231;-63
2022/05/21 09:33:37;;;;;;;382.30;361.33;;;21.90;99.90;;;20.75;69.51;100518.69;4907952;29;20207;-63
2022/05/21 09:36:06;;;;;;;381.42;360.45;;;21.60;99.90;;;20.28;69.60;100434.19;4917182;29;20227;-63
2022/05/21 09:38:50;;;;;;;390.13;370.05;;;21.50;99.90;;;20.51;68.67;100446.91;4926339;29;20203;-63
2022/05/21 09:41:32;;;;;;;390.80;370.50;;;21.60;99.90;;;20.66;70.07;100478.69;4922275;29;20215;-63
2022/05/21 09:47:14;;;;;;;409.75;386.50;;;21.70;99.90;;;21.49;69.60;100571.03;4890909;29;20680;-63
2022/05/21 09:49:43;;;;;;;408.17;385.60;;;22.10;99.90;;;21.23;67.45;100458.06;4909172;29;20230;-64
2022/05/21 09:52:25;;;;;;;396.02;373.52;;;21.90;99.90;;;21.07;71.46;100481.88;4893518;29;20211;-63
2022/05/21 09:54:53;;;;;;;336.88;318.08;;;22.10;99.90;;;21.16;69.41;100470.81;4922289;29;20676;-64
2022/05/21 09:57:37;;;;;;;347.27;328.30;;;19.60;99.90;;;21.47;67.04;100467.97;4896034;29;20231;-63
2022/05/21 10:00:34;;;;;;;340.52;321.70;;;22.20;99.90;;;21.63;68.59;100487.13;4909781;29;20231;-63
2022/05/21 10:03:09;;;;;;;322.70;305.92;;;22.30;99.90;;;22.09;69.24;100553.69;4908055;29;20208;-64
2022/05/21 10:05:50;;;;;;;230.38;217.48;;;22.30;99.90;;;22.71;67.92;100563.06;4894717;29;20203;-63
2022/05/21 10:12:14;;;;;;;215.75;203.68;;;22.90;99.90;;;21.75;67.91;100394.28;4935236;28;20207;-64
2022/05/21 10:15:03;;;;;;;221.10;208.20;;;22.90;99.90;;;22.22;67.67;100438.31;4906750;29;20227;-63
2022/05/21 10:17:40;;;;;;;226.18;212.45;;;22.90;99.90;;;22.34;68.68;100470.19;4897331;29;20233;-63
2022/05/21 10:20:23;;;;;;;244.95;230.30;;;23.10;99.90;;;22.38;66.57;100427.81;4915961;29;20237;-64
2022/05/21 10:23:02;;;;;;;231.82;218.30;;;23.10;99.90;;;22.44;66.47;100409.59;4906137;29;20211;-63
2022/05/21 10:25:48;;;;;;;222.95;209.52;;;23.40;99.90;;;22.11;66.15;100351.69;4905436;29;20207;-64
2022/05/21 10:28:42;;;;;;;227.35;213.73;;;23.20;99.90;;;21.98;64.99;100303.63;4886385;29;20206;-64
2022/05/21 10:31:44;;;;;;;233.10;218.70;;;23.00;99.90;;;22.34;65.95;100365.09;4925105;28;20983;-64